Time;durP1;ratioP1;P1;durP2;ratioP2;P2;SDS_P1;SDS_P2;PMS_P1;PMS_P2;Temp;Humidity;BMP_temperature;BMP_pressure;BME280_temperature;BME280_humidity;BME280_pressure;Samples;Min_cycle;Max_cycle;Signal;HPM_P1;HPM_P2
2023/10/14 00:02:21;;;;;;;25.33;4.95;;;;;;;14.26;73.39;98152.78;4877367;29;20548;-81
2023/10/14 00:05:05;;;;;;;26.27;4.53;;;;;;;14.14;73.68;98167.91;4878404;29;20093;-81
2023/10/14 00:07:53;;;;;;;23.80;3.95;;;;;;;14.18;73.61;98176.16;4875824;29;20044;-82
2023/10/14 00:10:37;;;;;;;26.77;4.50;;;;;;;14.35;74.80;98182.22;4875429;29;20067;-82
2023/10/14 00:13:22;;;;;;;18.33;4.57;;;;;;;14.22;75.57;98171.97;4875674;29;20048;-81
2023/10/14 00:16:22;;;;;;;18.40;3.42;;;;;;;13.91;77.29;98195.19;4878473;29;20146;-79
2023/10/14 00:19:09;;;;;;;26.52;4.38;;;;;;;13.64;77.26;98180.75;4877549;29;20067;-81
2023/10/14 00:21:53;;;;;;;27.45;4.07;;;;;;;14.11;77.44;98187.63;4876831;29;20140;-82
2023/10/14 00:24:39;;;;;;;21.13;4.78;;;;;;;13.91;77.45;98197.84;4877665;29;20048;-81
2023/10/14 00:27:24;;;;;;;18.77;3.92;;;;;;;13.60;78.10;98203.34;4876841;29;20502;-82
2023/10/14 00:30:12;;;;;;;26.05;4.10;;;;;;;13.50;78.87;98196.06;4876960;29;20101;-82
2023/10/14 00:32:56;;;;;;;24.67;3.35;;;;;;;13.80;77.75;98205.59;4877314;29;20056;-82
2023/10/14 00:35:42;;;;;;;18.73;3.72;;;;;;;13.75;77.95;98216.03;4877003;29;20559;-82
2023/10/14 00:38:27;;;;;;;20.92;4.57;;;;;;;14.13;77.22;98219.06;4875700;29;20158;-80
2023/10/14 00:41:12;;;;;;;20.88;3.70;;;;;;;13.85;77.98;98229.41;4877963;29;20100;-81
2023/10/14 00:43:59;;;;;;;21.85;3.85;;;;;;;13.96;78.16;98224.34;4875964;29;20056;-80
2023/10/14 00:46:50;;;;;;;26.77;5.15;;;;;;;13.90;78.26;98230.53;4878410;29;20051;-81
2023/10/14 00:49:35;;;;;;;31.05;5.28;;;;;;;14.18;77.81;98223.66;4874248;29;20104;-82
2023/10/14 00:52:19;;;;;;;28.75;4.75;;;;;;;14.12;78.12;98223.53;4872337;29;20056;-82
2023/10/14 00:55:12;;;;;;;25.10;4.80;;;;;;;14.40;78.05;98240.38;4874119;29;20427;-81
2023/10/14 00:57:59;;;;;;;28.75;4.20;;;;;;;13.74;79.63;98243.44;4873270;29;20515;-82
2023/10/14 01:00:58;;;;;;;20.33;4.03;;;;;;;13.82;79.30;98219.34;4875492;29;20048;-81
2023/10/14 01:03:42;;;;;;;27.08;4.70;;;;;;;13.83;78.37;98238.59;4877050;29;20044;-80
2023/10/14 01:06:34;;;;;;;20.83;3.90;;;;;;;13.78;78.52;98239.31;4877454;29;20043;-80
2023/10/14 01:09:19;;;;;;;12.30;3.47;;;;;;;14.00;77.33;98263.19;4877854;29;20706;-81
2023/10/14 01:12:16;;;;;;;16.00;4.70;;;;;;;13.80;78.48;98249.59;4877590;29;20510;-81
2023/10/14 01:15:10;;;;;;;16.92;3.35;;;;;;;13.90;78.11;98259.56;4876860;29;20100;-81
2023/10/14 01:17:54;;;;;;;18.67;4.35;;;;;;;13.76;78.60;98262.47;4876287;29;20519;-82
2023/10/14 01:20:38;;;;;;;19.33;3.38;;;;;;;13.93;78.15;98249.34;4874589;29;20101;-81
2023/10/14 01:23:24;;;;;;;26.42;3.55;;;;;;;13.85;78.74;98263.69;4875997;29;20075;-82
2023/10/14 01:26:10;;;;;;;21.08;4.50;;;;;;;14.09;78.48;98266.25;4876298;29;20040;-81
2023/10/14 01:28:59;;;;;;;28.30;5.03;;;;;;;13.63;79.82;98268.03;4876045;29;20118;-81
2023/10/14 01:32:09;;;;;;;21.27;4.85;;;;;;;13.83;80.20;98280.78;4878108;29;20165;-80
2023/10/14 01:34:56;;;;;;;31.52;5.65;;;;;;;13.69;80.43;98273.16;4874696;29;20104;-82
2023/10/14 01:37:44;;;;;;;27.58;5.18;;;;;;;13.94;79.28;98272.03;4875283;29;20097;-81
2023/10/14 01:40:35;;;;;;;23.50;4.65;;;;;;;13.88;79.27;98275.63;4873804;29;20407;-81
2023/10/14 01:43:24;;;;;;;25.17;5.10;;;;;;;13.97;78.94;98289.25;4876403;29;20044;-81
2023/10/14 01:46:09;;;;;;;24.25;4.90;;;;;;;14.03;78.77;98298.03;4877219;29;20165;-80
2023/10/14 01:49:02;;;;;;;34.47;4.95;;;;;;;14.06;78.26;98287.03;4874769;29;20052;-81
2023/10/14 01:51:50;;;;;;;30.67;4.57;;;;;;;14.06;78.25;98302.88;4875568;29;20097;-80
2023/10/14 01:54:34;;;;;;;39.28;5.55;;;;;;;14.01;77.80;98295.66;4877098;29;20101;-81
2023/10/14 01:57:18;;;;;;;27.45;5.80;;;;;;;14.05;77.52;98307.34;4876839;29;20555;-81
2023/10/14 02:00:16;;;;;;;25.90;4.85;;;;;;;14.00;77.96;98315.16;4875806;29;20515;-82
2023/10/14 02:03:00;;;;;;;32.42;5.07;;;;;;;13.96;77.42;98322.75;4874242;29;20044;-82
2023/10/14 02:05:45;;;;;;;28.20;4.82;;;;;;;14.30;76.38;98323.88;4874308;29;20489;-80
2023/10/14 02:08:29;;;;;;;14.88;4.30;;;;;;;14.27;75.83;98319.88;4877081;29;20073;-79
2023/10/14 02:11:16;;;;;;;28.27;4.88;;;;;;;14.17;76.24;98324.97;4876739;29;20529;-79
2023/10/14 02:14:07;;;;;;;28.25;5.05;;;;;;;14.13;76.00;98330.69;4877054;29;20044;-81
2023/10/14 02:16:51;;;;;;;25.25;4.63;;;;;;;13.98;76.17;98333.06;4873953;29;20092;-81
2023/10/14 02:19:38;;;;;;;23.60;4.63;;;;;;;13.95;76.31;98344.06;4875609;29;20426;-82
2023/10/14 02:22:23;;;;;;;27.13;4.47;;;;;;;14.09;75.81;98340.13;4875340;29;20112;-81
2023/10/14 02:25:07;;;;;;;26.88;5.20;;;;;;;14.32;75.28;98340.28;4874531;29;20120;-81
2023/10/14 02:27:53;;;;;;;28.40;4.55;;;;;;;14.43;74.44;98356.06;4875382;29;20166;-81
2023/10/14 02:30:37;;;;;;;27.67;4.70;;;;;;;14.37;74.18;98349.09;4876045;29;20060;-81
2023/10/14 02:33:21;;;;;;;27.55;4.78;;;;;;;14.49;74.14;98345.59;4875628;29;20096;-81
2023/10/14 02:36:08;;;;;;;28.70;4.43;;;;;;;14.38;74.36;98345.44;4870203;29;20040;-80
2023/10/14 02:38:55;;;;;;;33.25;5.13;;;;;;;14.18;74.91;98350.34;4876373;29;20087;-80
2023/10/14 02:41:40;;;;;;;33.70;5.47;;;;;;;14.22;74.46;98354.09;4871403;29;20544;-81
2023/10/14 02:44:32;;;;;;;24.02;3.85;;;;;;;14.18;74.57;98363.53;4871917;29;20515;-81
2023/10/14 02:47:19;;;;;;;21.73;4.05;;;;;;;14.35;74.07;98364.38;4878438;29;20067;-81
2023/10/14 02:50:11;;;;;;;23.15;4.45;;;;;;;13.97;74.57;98373.69;4880061;29;20044;-81
2023/10/14 02:53:06;;;;;;;25.58;4.30;;;;;;;14.39;74.38;98376.06;4879401;29;20084;-81
2023/10/14 02:55:50;;;;;;;36.65;5.15;;;;;;;14.06;74.43;98382.81;4879222;29;20036;-81
2023/10/14 02:58:34;;;;;;;26.67;4.22;;;;;;;14.19;73.96;98396.81;4877590;29;20407;-79
2023/10/14 03:01:23;;;;;;;30.13;5.13;;;;;;;14.61;73.23;98411.56;4879325;29;20460;-82
2023/10/14 03:04:07;;;;;;;26.83;4.65;;;;;;;14.52;73.54;98405.84;4879660;29;20126;-80
2023/10/14 03:06:55;;;;;;;30.77;4.18;;;;;;;15.02;72.37;98412.31;4880084;29;20055;-81
2023/10/14 03:09:39;;;;;;;23.40;5.35;;;;;;;14.81;72.56;98405.88;4879891;29;20109;-81
2023/10/14 03:12:23;;;;;;;27.83;4.95;;;;;;;14.88;72.74;98421.59;4876480;29;20053;-81
2023/10/14 03:15:20;;;;;;;29.75;5.55;;;;;;;14.08;74.51;98414.28;4878422;29;20044;-82
2023/10/14 03:18:06;;;;;;;26.42;4.53;;;;;;;14.22;74.58;98435.91;4874068;29;20073;-82
2023/10/14 03:23:41;;;;;;;34.65;4.93;;;;;;;14.22;74.46;98443.84;4879343;29;20052;-82
2023/10/14 03:26:32;;;;;;;15.63;3.22;;;;;;;14.00;74.85;98442.59;4878799;29;20429;-81
2023/10/14 03:29:22;;;;;;;20.85;3.65;;;;;;;13.64;74.25;98438.38;4878244;29;20084;-81
2023/10/14 03:32:09;;;;;;;20.55;3.78;;;;;;;13.84;74.34;98440.66;4876412;29;20096;-81
2023/10/14 03:34:53;;;;;;;19.58;3.25;;;;;;;13.70;74.20;98421.63;4878139;29;20124;-82
2023/10/14 03:37:40;;;;;;;20.77;3.67;;;;;;;13.46;73.91;98448.00;4879250;29;20080;-82
2023/10/14 03:43:44;;;;;;;21.92;3.90;;;;;;;13.91;72.63;98454.56;4878208;29;20076;-82
2023/10/14 03:46:31;;;;;;;16.13;2.83;;;;;;;13.32;74.11;98460.56;4868885;29;20043;-82
2023/10/14 03:49:22;;;;;;;15.45;3.00;;;;;;;13.67;72.92;98451.13;4877560;29;20044;-81
2023/10/14 03:52:10;;;;;;;19.77;4.03;;;;;;;14.09;72.24;98474.72;4879753;29;20048;-81
2023/10/14 03:54:53;;;;;;;16.33;2.75;;;;;;;13.52;73.01;98462.91;4879305;29;20048;-83
2023/10/14 03:57:38;;;;;;;14.15;2.38;;;;;;;13.05;74.10;98476.75;4877887;29;20100;-82
2023/10/14 04:00:36;;;;;;;14.63;3.58;;;;;;;13.61;72.28;98465.22;4876185;29;20570;-82
2023/10/14 04:03:39;;;;;;;15.07;2.95;;;;;;;13.50;72.15;98453.63;4878345;29;20043;-81
2023/10/14 04:06:23;;;;;;;12.55;2.55;;;;;;;14.02;71.41;98470.59;4877995;29;20099;-81
2023/10/14 04:09:09;;;;;;;10.38;2.70;;;;;;;13.70;71.61;98479.66;4876496;29;20476;-81
2023/10/14 04:11:58;;;;;;;17.00;3.38;;;;;;;13.29;72.39;98464.44;4877475;29;20117;-81
2023/10/14 04:14:42;;;;;;;13.98;2.45;;;;;;;13.43;72.07;98459.00;4878275;29;20402;-81
2023/10/14 04:17:32;;;;;;;13.00;2.45;;;;;;;13.55;71.65;98459.03;4877809;29;20061;-81
2023/10/14 04:20:22;;;;;;;11.88;2.30;;;;;;;13.66;71.46;98473.25;4874905;29;20201;-82
2023/10/14 04:23:19;;;;;;;13.88;2.35;;;;;;;13.43;71.58;98480.09;4877045;29;20503;-82
2023/10/14 04:26:03;;;;;;;11.82;2.50;;;;;;;13.37;72.04;98491.53;4875571;29;20123;-82
2023/10/14 04:28:58;;;;;;;11.13;2.42;;;;;;;13.13;72.31;98489.63;4874227;29;20063;-82
2023/10/14 04:31:43;;;;;;;14.32;2.78;;;;;;;13.21;71.91;98496.41;4875781;29;20541;-82
2023/10/14 04:34:27;;;;;;;17.23;2.42;;;;;;;13.35;72.19;98520.75;4877879;29;20068;-82
2023/10/14 04:37:20;;;;;;;12.00;2.92;;;;;;;13.62;71.69;98519.56;4876656;29;20059;-83
2023/10/14 04:40:15;;;;;;;9.32;2.20;;;;;;;13.49;72.34;98526.63;4876524;29;20051;-81
2023/10/14 04:46:13;;;;;;;11.60;2.50;;;;;;;12.97;73.92;98509.50;4876005;29;20158;-81
2023/10/14 04:49:08;;;;;;;18.73;3.20;;;;;;;12.97;73.92;98498.97;4876957;29;20075;-81
2023/10/14 04:51:58;;;;;;;11.85;2.13;;;;;;;13.12;73.72;98526.72;4877252;29;20100;-81
2023/10/14 04:54:54;;;;;;;11.93;3.13;;;;;;;13.41;72.52;98530.38;4877106;29;20056;-80
2023/10/14 04:57:40;;;;;;;9.43;2.42;;;;;;;13.19;72.36;98526.66;4877232;29;20112;-80
2023/10/14 05:00:32;;;;;;;7.90;2.35;;;;;;;13.19;72.19;98535.38;4874177;29;20129;-82
2023/10/14 05:03:22;;;;;;;10.05;2.10;;;;;;;13.29;71.98;98548.00;4877569;29;20048;-81
2023/10/14 05:08:55;;;;;;;6.82;1.83;;;;;;;13.12;71.15;98553.91;4872784;29;20072;-81
2023/10/14 05:11:43;;;;;;;9.18;1.85;;;;;;;13.61;70.47;98554.88;4876130;29;20035;-81
2023/10/14 05:14:37;;;;;;;9.35;1.98;;;;;;;13.52;70.57;98555.19;4877437;29;20112;-81
2023/10/14 05:17:25;;;;;;;10.13;1.80;;;;;;;13.64;70.21;98544.66;4876631;29;20109;-81
2023/10/14 05:20:16;;;;;;;8.02;2.10;;;;;;;13.52;70.44;98542.00;4875793;29;20048;-81
2023/10/14 05:23:01;;;;;;;8.07;2.15;;;;;;;13.56;70.34;98548.47;4877344;29;20069;-81
2023/10/14 05:25:48;;;;;;;9.77;1.98;;;;;;;13.81;69.73;98550.09;4876569;29;20092;-81
2023/10/14 05:28:36;;;;;;;9.82;2.15;;;;;;;13.21;70.52;98564.94;4877129;29;20048;-81
2023/10/14 05:31:20;;;;;;;15.10;2.53;;;;;;;13.39;70.84;98569.34;4877244;29;20043;-83
2023/10/14 05:34:05;;;;;;;8.35;1.70;;;;;;;13.61;70.62;98582.03;4876532;29;20136;-82
2023/10/14 05:36:52;;;;;;;10.10;2.13;;;;;;;13.18;71.46;98562.75;4871458;29;20047;-82
2023/10/14 05:39:43;;;;;;;8.32;2.30;;;;;;;13.44;71.36;98566.06;4876629;29;20048;-84
2023/10/14 05:42:27;;;;;;;7.15;2.30;;;;;;;13.25;71.94;98579.25;4877480;29;20133;-83
2023/10/14 05:45:13;;;;;;;9.00;1.85;;;;;;;13.40;71.94;98597.31;4886141;29;20071;-83
2023/10/14 05:47:57;;;;;;;12.40;2.08;;;;;;;13.26;72.37;98588.78;4881563;29;20087;-84
2023/10/14 05:50:41;;;;;;;9.27;2.53;;;;;;;13.19;72.80;98601.25;4877968;29;20530;-83
2023/10/14 05:53:28;;;;;;;9.98;2.28;;;;;;;13.21;72.64;98586.00;4881668;29;20060;-83
2023/10/14 05:56:14;;;;;;;12.63;2.45;;;;;;;13.18;73.02;98589.09;4878697;29;20083;-83
2023/10/14 05:59:00;;;;;;;10.70;2.50;;;;;;;12.89;73.46;98603.84;4878932;29;20040;-82
2023/10/14 06:01:46;;;;;;;10.80;2.78;;;;;;;13.11;73.15;98598.91;4874688;29;20097;-84
2023/10/14 06:04:30;;;;;;;14.43;2.40;;;;;;;13.09;73.00;98612.31;4875301;29;20064;-83
2023/10/14 06:07:18;;;;;;;10.38;1.70;;;;;;;12.58;74.38;98622.19;4877567;29;20559;-81
2023/10/14 06:10:02;;;;;;;11.15;2.80;;;;;;;12.71;74.29;98615.97;4877179;29;20510;-81
2023/10/14 06:12:50;;;;;;;10.75;1.88;;;;;;;12.69;74.15;98634.63;4876424;29;20154;-82
2023/10/14 06:15:39;;;;;;;11.70;2.20;;;;;;;13.20;73.29;98638.94;4877621;29;20100;-81
2023/10/14 06:18:23;;;;;;;6.88;1.92;;;;;;;13.13;72.57;98623.19;4875949;29;20101;-82
2023/10/14 06:21:10;;;;;;;10.27;1.85;;;;;;;12.79;73.54;98635.97;4874628;29;20055;-81
2023/10/14 06:23:55;;;;;;;11.80;2.67;;;;;;;12.90;73.94;98643.13;4876499;29;20040;-82
2023/10/14 06:26:39;;;;;;;9.05;2.28;;;;;;;12.60;73.93;98651.75;4875838;29;20124;-82
2023/10/14 06:29:23;;;;;;;9.52;1.90;;;;;;;12.60;73.71;98649.09;4883507;29;20113;-83
2023/10/14 06:32:07;;;;;;;13.18;2.03;;;;;;;12.64;73.99;98658.19;4880514;29;20143;-82
2023/10/14 06:35:02;;;;;;;7.03;2.10;;;;;;;12.61;73.81;98663.88;4879951;29;20073;-81
2023/10/14 06:37:47;;;;;;;10.52;2.85;;;;;;;12.65;73.72;98659.78;4878177;29;20052;-81
2023/10/14 06:40:37;;;;;;;6.18;1.90;;;;;;;13.00;72.88;98666.31;4878492;29;20515;-82
2023/10/14 06:43:28;;;;;;;6.28;1.88;;;;;;;12.90;72.96;98680.00;4880757;29;20114;-82
2023/10/14 06:46:13;;;;;;;6.60;1.88;;;;;;;12.96;72.81;98684.38;4877366;29;20262;-81
2023/10/14 06:48:58;;;;;;;6.60;2.15;;;;;;;12.95;72.47;98722.28;4877936;29;20096;-81
2023/10/14 06:51:43;;;;;;;12.57;2.17;;;;;;;13.23;72.21;98749.19;4879390;29;20040;-80
2023/10/14 06:54:30;;;;;;;4.57;1.70;;;;;;;13.35;71.53;98741.34;4877609;29;20103;-81
2023/10/14 06:57:14;;;;;;;11.07;2.28;;;;;;;13.34;70.51;98751.09;4876426;29;20055;-81
2023/10/14 06:59:58;;;;;;;7.25;1.85;;;;;;;13.38;70.51;98740.94;4875218;29;20136;-79
2023/10/14 07:02:42;;;;;;;8.13;1.90;;;;;;;13.82;70.18;98756.66;4873107;29;20044;-82
2023/10/14 07:05:28;;;;;;;12.43;2.05;;;;;;;13.71;70.29;98751.09;4874642;29;20049;-85
2023/10/14 07:08:14;;;;;;;10.93;1.73;;;;;;;13.70;70.00;98775.06;4873506;29;20048;-84
2023/10/14 07:11:06;;;;;;;9.03;2.20;;;;;;;13.96;69.22;98786.31;4878187;29;20104;-81
2023/10/14 07:13:49;;;;;;;5.70;1.63;;;;;;;13.80;69.01;98772.72;4875851;29;20047;-83
2023/10/14 07:16:35;;;;;;;6.95;1.85;;;;;;;14.07;68.79;98790.03;4874913;29;20056;-85
2023/10/14 07:19:19;;;;;;;5.35;1.50;;;;;;;14.05;68.47;98790.25;4874103;29;20093;-83
2023/10/14 07:22:07;;;;;;;5.07;1.40;;;;;;;14.28;67.55;98808.03;4878179;29;20064;-85
2023/10/14 07:24:52;;;;;;;6.95;1.50;;;;;;;13.91;67.98;98786.16;4877671;29;20094;-85
2023/10/14 07:27:38;;;;;;;10.90;1.50;;;;;;;14.16;67.98;98807.16;4876366;29;20048;-83
2023/10/14 07:30:26;;;;;;;5.35;1.50;;;;;;;14.11;67.69;98818.38;4871087;29;20154;-85
2023/10/14 07:33:11;;;;;;;6.35;1.92;;;;;;;14.24;67.10;98816.59;4876763;29;20089;-85
2023/10/14 07:35:57;;;;;;;9.40;1.75;;;;;;;14.14;66.64;98827.69;4879924;29;20047;-81
2023/10/14 07:38:45;;;;;;;7.35;1.90;;;;;;;13.93;67.22;98828.97;4876451;29;20233;-85
2023/10/14 07:41:29;;;;;;;9.40;2.17;;;;;;;14.12;66.99;98833.19;4874468;29;20051;-84
2023/10/14 07:44:14;;;;;;;7.70;1.73;;;;;;;14.40;65.88;98834.47;4875680;29;20095;-82
2023/10/14 07:46:58;;;;;;;9.13;1.90;;;;;;;14.21;65.95;98846.09;4871181;29;20093;-83
2023/10/14 07:49:44;;;;;;;7.05;1.50;;;;;;;14.26;65.53;98846.22;4875598;29;20104;-82
2023/10/14 07:52:31;;;;;;;10.73;2.75;;;;;;;14.14;65.53;98854.88;4875612;29;20498;-86
2023/10/14 07:55:15;;;;;;;8.15;2.08;;;;;;;13.90;64.83;98843.41;4880215;29;20128;-86
2023/10/14 07:58:00;;;;;;;8.88;1.92;;;;;;;13.91;64.81;98866.13;4868722;29;20061;-88
2023/10/14 08:00:50;;;;;;;10.25;2.30;;;;;;;13.81;64.48;98848.19;4876430;29;20047;-87
2023/10/14 08:03:36;;;;;;;9.13;2.30;;;;;;;13.85;65.45;98873.09;4880557;29;20128;-86
2023/10/14 08:06:21;;;;;;;12.07;2.30;;;;;;;14.14;64.79;98869.94;4880334;29;20051;-87
2023/10/14 08:09:05;;;;;;;8.77;2.10;;;;;;;13.96;65.78;98878.69;4878965;29;20048;-84
2023/10/14 08:11:50;;;;;;;11.52;2.40;;;;;;;14.69;65.12;98876.13;4881261;29;20056;-85
2023/10/14 08:14:34;;;;;;;9.63;2.88;;;;;;;14.71;64.84;98864.31;4880350;29;20113;-85
2023/10/14 08:17:19;;;;;;;15.80;2.78;;;;;;;14.09;65.96;98865.31;4880730;29;20067;-86
2023/10/14 08:20:12;;;;;;;12.52;2.63;;;;;;;13.90;66.19;98882.19;4877550;29;20065;-85
2023/10/14 08:22:56;;;;;;;11.17;2.50;;;;;;;14.45;64.27;98904.28;4872882;29;20128;-85
2023/10/14 08:25:42;;;;;;;12.63;2.55;;;;;;;14.27;64.03;98906.72;4877155;29;20049;-85
2023/10/14 08:28:27;;;;;;;10.90;2.35;;;;;;;14.07;64.52;98895.59;4876918;29;20487;-82
2023/10/14 08:31:11;;;;;;;13.20;2.65;;;;;;;14.59;63.39;98905.72;4878674;29;20048;-81
2023/10/14 08:33:56;;;;;;;7.53;2.72;;;;;;;14.45;62.89;98917.47;4877080;29;20064;-82
2023/10/14 08:36:42;;;;;;;8.13;2.42;;;;;;;13.92;63.27;98911.78;4877263;29;20040;-81
2023/10/14 08:39:31;;;;;;;12.80;2.47;;;;;;;14.75;61.53;98911.44;4877621;29;20095;-81
2023/10/14 08:42:15;;;;;;;11.57;3.05;;;;;;;14.70;60.98;98939.28;4877391;29;20126;-82
2023/10/14 08:45:04;;;;;;;10.13;2.65;;;;;;;14.14;60.52;98918.22;4875523;29;20071;-81
2023/10/14 08:47:52;;;;;;;7.18;2.28;;;;;;;15.09;59.44;98932.88;4874924;29;20518;-82
2023/10/14 08:50:39;;;;;;;5.88;2.03;;;;;;;14.67;58.81;98942.38;4874310;29;20065;-83
2023/10/14 08:53:27;;;;;;;13.32;2.80;;;;;;;13.78;59.36;98930.41;4875165;29;20068;-82
2023/10/14 08:56:12;;;;;;;12.15;2.40;;;;;;;14.49;58.91;98955.63;4872853;29;20117;-81
2023/10/14 08:58:57;;;;;;;16.83;2.78;;;;;;;14.03;58.65;98942.75;4872658;29;20048;-80
2023/10/14 09:01:42;;;;;;;9.55;2.78;;;;;;;14.61;59.05;98961.78;4871732;29;20056;-81
2023/10/14 09:04:28;;;;;;;10.63;2.80;;;;;;;14.21;58.52;98964.88;4871016;29;20097;-80
2023/10/14 09:07:14;;;;;;;10.52;3.05;;;;;;;14.74;58.20;98981.13;4871696;29;20056;-79
2023/10/14 09:09:57;;;;;;;13.25;2.78;;;;;;;15.38;57.56;98978.00;4866427;29;20105;-81
2023/10/14 09:12:59;;;;;;;10.98;2.60;;;;;;;15.23;57.88;98978.44;4876474;29;20048;-82
2023/10/14 09:15:44;;;;;;;8.90;2.63;;;;;;;15.30;56.82;99002.13;4878648;29;20040;-85
2023/10/14 09:18:28;;;;;;;10.63;2.97;;;;;;;15.04;57.36;98985.63;4875915;29;20399;-84
2023/10/14 09:21:13;;;;;;;10.35;2.50;;;;;;;15.80;55.90;98985.06;4873043;29;20047;-84
2023/10/14 09:24:07;;;;;;;7.95;2.70;;;;;;;15.42;55.00;98995.03;4876953;29;20122;-86
2023/10/14 09:26:52;;;;;;;14.65;3.90;;;;;;;15.47;54.69;98986.44;4878924;29;20076;-88
2023/10/14 09:29:36;;;;;;;9.25;3.45;;;;;;;14.99;54.67;99002.16;4875716;29;20455;-88
2023/10/14 09:32:21;;;;;;;12.70;2.80;;;;;;;14.71;55.35;99006.97;4876054;29;20064;-86
2023/10/14 09:35:05;;;;;;;13.45;2.95;;;;;;;15.79;54.48;98997.50;4871498;29;20059;-84
2023/10/14 09:37:49;;;;;;;10.00;2.45;;;;;;;14.87;55.65;99015.31;4874730;29;20048;-81
2023/10/14 09:40:33;;;;;;;10.00;2.95;;;;;;;14.90;55.59;99014.06;4877812;29;20104;-84
2023/10/14 09:43:18;;;;;;;16.10;3.60;;;;;;;15.44;56.48;99008.84;4871739;29;20559;-85
2023/10/14 09:46:11;;;;;;;16.75;2.88;;;;;;;15.77;56.31;98996.91;4871543;29;20072;-84
2023/10/14 09:48:57;;;;;;;10.70;2.90;;;;;;;15.99;57.02;99004.31;4874357;29;20043;-85
2023/10/14 09:51:48;;;;;;;9.98;2.67;;;;;;;16.36;56.46;98996.09;4869137;29;20112;-85
2023/10/14 09:54:35;;;;;;;17.10;3.42;;;;;;;16.58;57.12;99021.97;4870464;29;20205;-84
2023/10/14 09:57:21;;;;;;;11.85;3.05;;;;;;;16.61;57.21;99005.59;4878865;29;20178;-84
2023/10/14 10:00:07;;;;;;;16.52;3.20;;;;;;;16.30;57.83;99036.75;4875359;29;20131;-87
2023/10/14 10:02:52;;;;;;;10.98;3.28;;;;;;;16.11;58.20;99028.94;4877370;29;20132;-87
2023/10/14 10:05:44;;;;;;;11.23;3.28;;;;;;;16.56;57.09;99032.78;4877186;29;20127;-83
2023/10/14 10:09:06;;;;;;;16.65;3.67;;;;;;;15.60;57.73;99048.91;4877589;29;20081;-84
2023/10/14 10:11:53;;;;;;;14.15;3.47;;;;;;;15.49;57.21;99037.25;4878193;29;20048;-83
2023/10/14 10:14:42;;;;;;;14.70;3.67;;;;;;;16.15;58.32;99044.38;4879705;29;20088;-81
2023/10/14 10:17:27;;;;;;;11.35;2.65;;;;;;;16.60;57.79;99056.97;4878947;29;20048;-83
2023/10/14 10:20:16;;;;;;;20.48;3.55;;;;;;;16.56;57.52;99047.88;4873990;29;20093;-83
2023/10/14 10:23:01;;;;;;;12.27;2.90;;;;;;;16.48;57.48;99051.72;4878569;29;20158;-83
2023/10/14 10:25:49;;;;;;;9.63;3.15;;;;;;;16.62;57.03;99054.09;4878109;29;20040;-84
2023/10/14 10:28:37;;;;;;;17.13;3.83;;;;;;;15.95;58.12;99061.41;4878639;29;20048;-84
2023/10/14 10:31:23;;;;;;;15.90;3.85;;;;;;;15.76;58.15;99068.59;4875586;29;20510;-86
2023/10/14 10:34:08;;;;;;;18.48;3.20;;;;;;;16.09;58.12;99054.03;4878647;29;20080;-86
2023/10/14 10:36:54;;;;;;;13.25;3.33;;;;;;;16.01;58.67;99067.59;4874276;29;20120;-85
2023/10/14 10:39:41;;;;;;;12.57;2.88;;;;;;;16.03;58.01;99074.28;4872804;29;20059;-84
2023/10/14 10:42:25;;;;;;;13.63;3.22;;;;;;;15.99;57.11;99073.16;4872533;29;20515;-80
2023/10/14 10:45:20;;;;;;;12.80;3.00;;;;;;;16.47;57.12;99067.81;4874984;29;20134;-81
2023/10/14 10:48:06;;;;;;;9.35;4.13;;;;;;;16.21;56.95;99059.31;4876777;29;20079;-81
2023/10/14 10:50:51;;;;;;;14.50;3.47;;;;;;;16.74;57.22;99080.59;4873138;29;20048;-87
2023/10/14 10:53:37;;;;;;;14.57;3.05;;;;;;;16.92;57.25;99069.81;4872121;29;20052;-84
2023/10/14 10:56:21;;;;;;;13.05;3.53;;;;;;;16.70;56.47;99078.41;4880252;29;20036;-85
2023/10/14 10:59:05;;;;;;;14.98;3.70;;;;;;;16.79;56.15;99075.38;4874993;29;20044;-84
2023/10/14 11:01:49;;;;;;;13.30;3.47;;;;;;;16.72;56.11;99080.00;4879248;29;20047;-84
2023/10/14 11:04:34;;;;;;;9.70;2.60;;;;;;;16.42;55.85;99081.78;4871268;29;20040;-85
2023/10/14 11:07:22;;;;;;;12.18;2.80;;;;;;;16.50;56.19;99088.53;4881826;29;20203;-88
2023/10/14 11:10:07;;;;;;;11.07;3.45;;;;;;;15.97;55.76;99085.81;4881079;29;20044;-89
2023/10/14 11:12:54;;;;;;;14.55;2.90;;;;;;;16.28;55.74;99065.31;4883802;29;20104;-88
2023/10/14 11:15:44;;;;;;;12.50;3.63;;;;;;;17.01;55.82;99099.44;4882872;29;20502;-86
2023/10/14 11:18:30;;;;;;;9.15;2.90;;;;;;;17.20;54.94;99086.81;4882504;29;20131;-90
2023/10/14 11:21:16;;;;;;;14.98;3.35;;;;;;;16.96;55.24;99052.38;4879459;29;20128;-89
2023/10/14 11:24:01;;;;;;;11.18;2.70;;;;;;;17.40;55.99;99081.06;4884121;29;20136;-88
2023/10/14 11:26:47;;;;;;;14.18;3.85;;;;;;;17.02;56.70;99052.50;4881862;29;20065;-89
2023/10/14 11:29:34;;;;;;;16.48;3.35;;;;;;;16.25;57.40;99060.47;4882862;29;20063;-89
2023/10/14 11:32:18;;;;;;;12.65;3.25;;;;;;;16.97;56.60;99064.59;4883179;29;20064;-89
2023/10/14 11:35:03;;;;;;;14.07;3.25;;;;;;;16.82;56.77;99080.22;4879124;29;20072;-88
2023/10/14 11:37:55;;;;;;;12.40;3.17;;;;;;;17.36;56.27;99069.31;4881208;29;20140;-89
2023/10/14 11:40:49;;;;;;;17.20;3.28;;;;;;;17.06;56.82;99086.28;4880369;29;20112;-88
2023/10/14 11:43:34;;;;;;;17.08;3.53;;;;;;;16.22;57.12;99096.19;4866299;29;20115;-88
2023/10/14 11:46:18;;;;;;;13.85;2.90;;;;;;;16.72;56.72;99101.22;4882465;29;20052;-87
2023/10/14 11:58:08;;;;;;;11.40;3.08;;;;;;;17.46;56.44;99079.28;5078995;23;20143;-90
2023/10/14 12:27:28;;;;;;;11.13;2.50;;;;;;;17.83;59.03;99094.78;5015871;23;20074;-89
2023/10/14 12:30:28;;;;;;;6.95;1.90;;;;;;;16.32;83.41;99108.84;4919297;29;20063;-90
2023/10/14 12:33:22;;;;;;;7.53;1.83;;;;;;;16.72;68.98;99122.41;4916064;29;20139;-89
2023/10/14 12:36:14;;;;;;;9.18;2.38;;;;;;;16.25;67.64;99135.44;4916361;29;20047;-91
2023/10/14 12:39:33;;;;;;;10.07;2.53;;;;;;;15.87;66.42;99130.50;5059189;28;20384;-90
2023/10/14 12:42:17;;;;;;;9.70;2.00;;;;;;;15.90;66.39;99132.72;5057436;28;20123;-90
2023/10/14 12:45:11;;;;;;;12.75;2.50;;;;;;;15.93;65.45;99129.66;5060609;28;20457;-89
2023/10/14 12:48:16;;;;;;;12.45;2.00;;;;;;;15.76;65.91;99138.22;5063135;28;20691;-88
2023/10/14 12:51:00;;;;;;;8.90;2.00;;;;;;;15.82;66.25;99110.84;5062543;28;20403;-86
2023/10/14 12:53:45;;;;;;;8.50;2.22;;;;;;;16.04;66.49;99157.97;5062772;28;20044;-89
2023/10/14 12:56:31;;;;;;;10.02;2.42;;;;;;;15.39;67.87;99133.03;5067248;28;20051;-89
2023/10/14 12:59:15;;;;;;;13.55;2.28;;;;;;;15.33;66.85;99125.97;5054876;28;20044;-91
2023/10/14 13:01:59;;;;;;;14.52;2.63;;;;;;;15.90;66.89;99133.56;5068086;28;20044;-88
2023/10/14 13:04:44;;;;;;;8.65;2.20;;;;;;;16.68;66.42;99145.91;5065778;28;20083;-89
2023/10/14 13:07:28;;;;;;;11.38;2.72;;;;;;;16.19;67.17;99130.25;5063129;28;20032;-88
2023/10/14 13:10:18;;;;;;;7.35;2.08;;;;;;;16.01;66.50;99142.56;5062639;28;20118;-87
2023/10/14 13:13:02;;;;;;;11.57;3.45;;;;;;;16.81;65.18;99155.47;5057615;28;20105;-87
2023/10/14 13:15:47;;;;;;;8.80;2.25;;;;;;;16.41;65.77;99106.66;5059607;28;20091;-86
2023/10/14 13:18:31;;;;;;;10.02;2.35;;;;;;;16.81;62.43;99121.00;5053947;28;20533;-89
2023/10/14 13:21:18;;;;;;;6.80;1.83;;;;;;;16.48;60.78;99159.50;5054797;28;20047;-88
2023/10/14 13:24:05;;;;;;;11.52;2.05;;;;;;;17.25;58.85;99142.59;5065072;28;20043;-88
2023/10/14 13:26:50;;;;;;;5.60;1.77;;;;;;;17.83;59.72;99163.00;5067931;28;20039;-90
2023/10/14 13:29:35;;;;;;;5.15;1.85;;;;;;;17.29;56.97;99169.47;5058031;28;20104;-91
2023/10/14 13:32:24;;;;;;;6.80;1.73;;;;;;;16.80;54.94;99164.47;5066636;28;20047;-88
2023/10/14 13:35:09;;;;;;;3.67;1.75;;;;;;;15.97;57.89;99181.91;5066284;28;20048;-91
2023/10/14 13:37:54;;;;;;;13.57;2.47;;;;;;;17.21;100.00;99274.09;5061027;28;20103;-87
2023/10/14 13:40:40;;;;;;;8.63;1.60;;;;;;;22.77;100.00;99234.09;5049634;28;20091;-87
2023/10/14 13:43:24;;;;;;;5.75;1.77;;;;;;;22.08;100.00;99209.47;5057440;28;20048;-85
2023/10/14 13:46:08;;;;;;;7.05;1.75;;;;;;;20.21;76.24;99213.16;5059102;28;20462;-85
2023/10/14 13:48:56;;;;;;;10.80;1.75;;;;;;;19.43;79.01;99204.38;5047445;28;20111;-85